Time;durP1;ratioP1;P1;durP2;ratioP2;P2;SDS_P1;SDS_P2;PMS_P1;PMS_P2;Temp;Humidity;BMP_temperature;BMP_pressure;BME280_temperature;BME280_humidity;BME280_pressure;Samples;Min_cycle;Max_cycle;Signal;HPM_P1;HPM_P2
2023/09/08 00:01:28;;;;;;;25.42;18.92;;;17.70;99.90;;;;;;5036394;28;20021;-91
2023/09/08 00:03:53;;;;;;;25.17;17.60;;;17.70;99.90;;;;;;5033168;28;20030;-95
2023/09/08 00:06:19;;;;;;;28.52;18.70;;;17.70;99.90;;;;;;5029901;28;20022;-94
2023/09/08 00:08:46;;;;;;;26.90;18.63;;;17.70;99.90;;;;;;5026707;28;20087;-94
2023/09/08 00:11:12;;;;;;;25.45;19.30;;;17.60;99.90;;;;;;5006682;28;20046;-93
2023/09/08 00:13:39;;;;;;;26.90;19.38;;;17.60;99.90;;;;;;5004535;28;20073;-93
2023/09/08 00:16:06;;;;;;;29.83;20.90;;;17.60;99.90;;;;;;5012666;28;20033;-93
2023/09/08 00:18:32;;;;;;;28.35;20.48;;;17.60;99.90;;;;;;5006391;28;20101;-93
2023/09/08 00:20:58;;;;;;;28.52;19.17;;;17.50;99.90;;;;;;5005255;28;20058;-93
2023/09/08 00:23:23;;;;;;;31.13;20.73;;;17.40;99.90;;;;;;5006994;28;20018;-94
2023/09/08 00:25:49;;;;;;;30.25;21.02;;;17.40;99.90;;;;;;5030601;28;20042;-94
2023/09/08 00:28:15;;;;;;;29.95;21.23;;;17.40;99.90;;;;;;5028065;28;20089;-95
2023/09/08 00:30:41;;;;;;;26.05;21.00;;;17.30;99.90;;;;;;5026545;28;20476;-92
2023/09/08 00:33:08;;;;;;;23.85;16.30;;;17.30;99.90;;;;;;5025242;28;20038;-94
2023/09/08 00:35:35;;;;;;;18.80;13.23;;;17.30;99.90;;;;;;5035365;28;20045;-94
2023/09/08 00:38:01;;;;;;;27.42;19.27;;;17.40;99.90;;;;;;5032827;28;20033;-94
2023/09/08 00:40:29;;;;;;;29.27;19.77;;;17.50;99.90;;;;;;5031644;28;20018;-94
2023/09/08 00:42:55;;;;;;;24.98;19.00;;;17.50;99.90;;;;;;5025968;28;20034;-95
2023/09/08 00:45:21;;;;;;;28.13;20.60;;;17.50;99.90;;;;;;5032210;28;20032;-94
2023/09/08 00:47:47;;;;;;;25.13;19.35;;;17.40;99.90;;;;;;5039260;28;20025;-94
2023/09/08 00:50:12;;;;;;;26.88;20.50;;;17.40;99.90;;;;;;5033018;28;20030;-93
2023/09/08 00:52:38;;;;;;;31.75;21.48;;;17.40;99.90;;;;;;5009683;28;20120;-94
2023/09/08 00:55:04;;;;;;;30.20;20.58;;;17.30;99.90;;;;;;5015451;28;20029;-94
2023/09/08 00:57:31;;;;;;;31.85;22.05;;;17.20;99.90;;;;;;5018144;28;20018;-94
2023/09/08 00:59:57;;;;;;;33.22;21.50;;;17.20;99.90;;;;;;5018860;28;20028;-93
2023/09/08 01:02:23;;;;;;;26.83;21.20;;;17.20;99.90;;;;;;5018938;28;20084;-94
2023/09/08 01:04:50;;;;;;;28.90;20.13;;;17.20;99.90;;;;;;5016503;28;20022;-94
2023/09/08 01:07:16;;;;;;;30.23;21.23;;;17.10;99.90;;;;;;5017271;28;20018;-94
2023/09/08 01:09:46;;;;;;;31.17;21.63;;;17.10;99.90;;;;;;5014451;28;20032;-94
2023/09/08 01:12:12;;;;;;;29.48;21.25;;;17.10;99.90;;;;;;5012730;28;20030;-94
2023/09/08 01:14:37;;;;;;;30.10;20.80;;;17.10;99.90;;;;;;5016088;28;20037;-93
2023/09/08 01:17:03;;;;;;;30.75;20.08;;;17.00;99.90;;;;;;5016268;28;20119;-92
2023/09/08 01:19:29;;;;;;;30.23;21.15;;;17.00;99.90;;;;;;5021024;28;20033;-93
2023/09/08 01:22:17;;;;;;;25.50;20.52;;;17.00;99.90;;;;;;5016559;28;20093;-92
2023/09/08 01:25:14;;;;;;;26.63;19.23;;;17.00;99.90;;;;;;5007341;28;20030;-92
2023/09/08 01:27:46;;;;;;;24.83;19.73;;;16.90;99.90;;;;;;5017892;28;20124;-94
2023/09/08 01:30:13;;;;;;;27.15;19.65;;;16.90;99.90;;;;;;5014852;28;20547;-93
2023/09/08 01:32:40;;;;;;;29.75;20.52;;;16.80;99.90;;;;;;5013412;28;20034;-93
2023/09/08 01:35:07;;;;;;;27.02;19.92;;;16.80;99.90;;;;;;5015280;28;20632;-93
2023/09/08 01:37:33;;;;;;;28.95;19.38;;;16.80;99.90;;;;;;5014469;28;20389;-94
2023/09/08 01:39:58;;;;;;;27.25;19.50;;;16.70;99.90;;;;;;5014618;28;20026;-94
2023/09/08 01:42:24;;;;;;;30.95;21.40;;;16.60;99.90;;;;;;5014962;28;20555;-94
2023/09/08 01:44:50;;;;;;;27.27;20.02;;;16.60;99.90;;;;;;5016688;28;20026;-92
2023/09/08 01:47:16;;;;;;;29.33;21.38;;;16.60;99.90;;;;;;5014716;28;20117;-92
2023/09/08 01:49:42;;;;;;;28.83;20.92;;;16.60;99.90;;;;;;5014090;28;20022;-92
2023/09/08 01:52:07;;;;;;;30.30;20.13;;;16.50;99.90;;;;;;5013961;28;20022;-92
2023/09/08 01:54:33;;;;;;;29.20;20.75;;;16.50;99.90;;;;;;5014734;28;20033;-92
2023/09/08 01:56:59;;;;;;;28.52;20.98;;;16.50;99.90;;;;;;5015376;28;20025;-92
2023/09/08 01:59:24;;;;;;;32.08;21.17;;;16.40;99.90;;;;;;5016481;28;20458;-92
2023/09/08 02:01:50;;;;;;;28.17;21.42;;;16.40;99.90;;;;;;5024514;28;20484;-91
2023/09/08 02:04:15;;;;;;;28.10;20.40;;;16.40;99.90;;;;;;5024389;28;20125;-93
2023/09/08 02:06:41;;;;;;;29.45;21.02;;;16.40;99.90;;;;;;5021069;28;20500;-92
2023/09/08 02:09:10;;;;;;;29.25;19.45;;;16.30;99.90;;;;;;5015435;28;20045;-92
2023/09/08 02:11:35;;;;;;;28.10;20.95;;;16.30;99.90;;;;;;5014381;28;20129;-92
2023/09/08 02:14:01;;;;;;;32.80;20.83;;;16.30;99.90;;;;;;5013892;28;20030;-93
2023/09/08 02:16:27;;;;;;;29.55;21.25;;;16.30;99.90;;;;;;5015652;28;20022;-93
2023/09/08 02:18:52;;;;;;;30.23;22.52;;;16.30;99.90;;;;;;5026103;28;20045;-92
2023/09/08 02:21:18;;;;;;;32.85;22.25;;;16.20;99.90;;;;;;5026081;28;20089;-92
2023/09/08 02:23:43;;;;;;;34.45;22.42;;;16.20;99.90;;;;;;5021261;28;20026;-94
2023/09/08 02:26:09;;;;;;;33.38;21.85;;;16.20;99.90;;;;;;5020552;28;20026;-93
2023/09/08 02:28:35;;;;;;;33.10;21.60;;;16.10;99.90;;;;;;5011628;28;20026;-92
2023/09/08 02:31:00;;;;;;;33.08;22.13;;;16.10;99.90;;;;;;4996580;28;20026;-94
2023/09/08 02:33:26;;;;;;;29.80;21.08;;;16.00;99.90;;;;;;4996631;28;20093;-93
2023/09/08 02:35:51;;;;;;;30.55;21.20;;;16.00;99.90;;;;;;5012954;28;20037;-92
2023/09/08 02:38:17;;;;;;;31.08;22.10;;;16.00;99.90;;;;;;5001147;28;20465;-93
2023/09/08 02:40:43;;;;;;;34.28;21.60;;;16.00;99.90;;;;;;5001009;28;20121;-91
2023/09/08 02:43:09;;;;;;;29.38;22.10;;;15.90;99.90;;;;;;4998822;28;20375;-94
2023/09/08 02:45:34;;;;;;;30.17;21.17;;;15.90;99.90;;;;;;4999422;28;20093;-94
2023/09/08 02:48:00;;;;;;;31.40;21.17;;;15.90;99.90;;;;;;5000379;28;20081;-94
2023/09/08 02:50:26;;;;;;;31.85;21.35;;;15.90;99.90;;;;;;4996432;28;20018;-94
2023/09/08 02:52:51;;;;;;;29.92;20.23;;;15.80;99.90;;;;;;5015295;28;20484;-94
2023/09/08 02:55:17;;;;;;;29.40;20.40;;;15.90;99.90;;;;;;5004443;28;20076;-93
2023/09/08 02:57:43;;;;;;;32.17;22.50;;;15.80;99.90;;;;;;5023053;28;20049;-92
2023/09/08 03:00:09;;;;;;;28.73;20.98;;;15.80;99.90;;;;;;5026173;28;20026;-94
2023/09/08 03:02:34;;;;;;;29.48;21.55;;;15.80;99.90;;;;;;5028327;28;20029;-89
2023/09/08 03:05:01;;;;;;;29.42;21.05;;;15.80;99.90;;;;;;5031493;28;20026;-94
2023/09/08 03:07:27;;;;;;;33.75;22.08;;;15.80;99.90;;;;;;5029500;28;20053;-92
2023/09/08 03:09:53;;;;;;;36.42;22.92;;;15.70;99.90;;;;;;5014721;28;20097;-93
2023/09/08 03:12:19;;;;;;;29.83;20.85;;;15.70;99.90;;;;;;5014250;28;20072;-92
2023/09/08 03:14:45;;;;;;;27.75;19.77;;;15.70;99.90;;;;;;5013464;28;20080;-90
2023/09/08 03:17:12;;;;;;;30.52;20.70;;;15.60;99.90;;;;;;5012569;28;20030;-91
2023/09/08 03:19:38;;;;;;;30.48;20.25;;;15.60;99.90;;;;;;5012381;28;20022;-92
2023/09/08 03:22:04;;;;;;;28.77;19.40;;;15.70;99.90;;;;;;5012601;28;20029;-93
2023/09/08 03:24:29;;;;;;;28.15;19.80;;;15.70;99.90;;;;;;5013079;28;20029;-93
2023/09/08 03:26:56;;;;;;;31.38;20.38;;;15.60;99.90;;;;;;5013419;28;20142;-94
2023/09/08 03:29:22;;;;;;;29.77;19.20;;;15.60;99.90;;;;;;5012780;28;20480;-93
2023/09/08 03:31:47;;;;;;;29.45;20.77;;;15.60;99.90;;;;;;5013967;28;20034;-93
2023/09/08 03:34:13;;;;;;;31.73;20.90;;;15.60;99.90;;;;;;5013292;28;20505;-94
2023/09/08 03:36:39;;;;;;;32.78;22.02;;;15.60;99.90;;;;;;5013106;28;20429;-93
2023/09/08 03:39:05;;;;;;;29.52;19.58;;;15.50;99.90;;;;;;5013183;28;20030;-93
2023/09/08 03:41:30;;;;;;;31.77;20.95;;;15.50;99.90;;;;;;5029653;28;20072;-94
2023/09/08 03:43:56;;;;;;;35.00;20.95;;;15.50;99.90;;;;;;5013409;28;20597;-92
2023/09/08 03:46:24;;;;;;;27.70;20.13;;;15.40;99.90;;;;;;5012645;28;20409;-93
2023/09/08 03:48:49;;;;;;;28.50;20.25;;;15.40;99.90;;;;;;5012356;28;20089;-95
2023/09/08 03:51:15;;;;;;;25.42;19.30;;;15.40;99.90;;;;;;5012584;28;20033;-93
2023/09/08 03:53:41;;;;;;;27.88;20.17;;;15.40;99.90;;;;;;5011944;28;20034;-93
2023/09/08 03:56:07;;;;;;;28.75;19.92;;;15.30;99.90;;;;;;5028711;28;20561;-92
2023/09/08 03:58:32;;;;;;;28.27;19.88;;;15.40;99.90;;;;;;5012598;28;20036;-94
2023/09/08 04:00:58;;;;;;;30.25;20.15;;;15.30;99.90;;;;;;5011933;28;20058;-94
2023/09/08 04:03:23;;;;;;;28.27;19.52;;;15.30;99.90;;;;;;5013246;28;20166;-93
2023/09/08 04:05:49;;;;;;;25.42;18.95;;;15.30;99.90;;;;;;5014741;28;20022;-93
2023/09/08 04:08:15;;;;;;;27.98;20.30;;;15.30;99.90;;;;;;5013612;28;20029;-94
2023/09/08 04:10:40;;;;;;;27.00;19.42;;;15.20;99.90;;;;;;5013486;28;20026;-94
2023/09/08 04:13:06;;;;;;;27.25;19.52;;;15.20;99.90;;;;;;5013457;28;20077;-94
2023/09/08 04:15:32;;;;;;;29.67;20.23;;;15.20;99.90;;;;;;5014587;28;20053;-91
2023/09/08 04:17:57;;;;;;;28.67;19.65;;;15.20;99.90;;;;;;5029136;28;20033;-92
2023/09/08 04:20:23;;;;;;;29.55;21.67;;;15.10;99.90;;;;;;5012264;28;20505;-90
2023/09/08 04:22:49;;;;;;;29.10;19.90;;;15.10;99.90;;;;;;5011780;28;20523;-93
2023/09/08 04:25:15;;;;;;;27.20;19.65;;;15.10;99.90;;;;;;5011850;28;20026;-93
2023/09/08 04:27:40;;;;;;;29.33;21.27;;;15.00;99.90;;;;;;5012549;28;20030;-92
2023/09/08 04:30:07;;;;;;;28.42;20.33;;;15.00;99.90;;;;;;5011879;28;20121;-92
2023/09/08 04:32:33;;;;;;;27.38;20.95;;;14.90;99.90;;;;;;5012098;28;20033;-93
2023/09/08 04:34:58;;;;;;;29.58;20.20;;;14.80;99.90;;;;;;5028692;28;20103;-93
2023/09/08 04:37:24;;;;;;;29.10;19.52;;;14.80;99.90;;;;;;5015152;28;20401;-94
2023/09/08 04:39:50;;;;;;;30.70;20.30;;;14.80;99.90;;;;;;5020795;28;20020;-93
2023/09/08 04:42:15;;;;;;;32.90;20.92;;;14.70;99.90;;;;;;5039288;28;20056;-92
2023/09/08 04:44:41;;;;;;;26.67;19.85;;;14.80;99.90;;;;;;5018203;28;20032;-93
2023/09/08 04:47:07;;;;;;;30.25;20.58;;;14.80;99.90;;;;;;5018333;28;20128;-91
2023/09/08 04:49:32;;;;;;;38.95;21.95;;;14.80;99.90;;;;;;5023940;28;20034;-93
2023/09/08 04:51:58;;;;;;;28.50;20.02;;;14.90;99.90;;;;;;5029209;28;20097;-94
2023/09/08 04:54:26;;;;;;;32.65;22.95;;;14.90;99.90;;;;;;5022069;28;20033;-94
2023/09/08 04:56:53;;;;;;;32.80;22.92;;;14.90;99.90;;;;;;5024712;28;20029;-95
2023/09/08 04:59:19;;;;;;;31.52;22.38;;;14.80;99.90;;;;;;5048660;28;20025;-94
2023/09/08 05:01:45;;;;;;;31.02;20.35;;;14.80;99.90;;;;;;5050405;28;20028;-92
2023/09/08 05:04:11;;;;;;;28.77;21.25;;;14.80;99.90;;;;;;5032865;28;20038;-94
2023/09/08 05:06:37;;;;;;;28.02;20.38;;;14.80;99.90;;;;;;5052115;28;20033;-94
2023/09/08 05:09:03;;;;;;;31.77;22.52;;;14.80;99.90;;;;;;5032192;28;20037;-91
2023/09/08 05:11:28;;;;;;;32.90;22.25;;;14.80;99.90;;;;;;5030406;28;20033;-95
2023/09/08 05:13:54;;;;;;;33.72;21.80;;;14.80;99.90;;;;;;5023445;28;20034;-94
2023/09/08 05:16:36;;;;;;;29.83;21.50;;;14.80;99.90;;;;;;5023311;28;20633;-92
2023/09/08 05:19:05;;;;;;;32.28;22.95;;;14.80;99.90;;;;;;5031071;28;20089;-92
2023/09/08 05:21:34;;;;;;;31.02;22.00;;;14.80;99.90;;;;;;5034853;28;20075;-90
2023/09/08 05:24:00;;;;;;;29.08;21.13;;;14.70;99.90;;;;;;5034476;28;20033;-93
2023/09/08 05:26:25;;;;;;;29.15;20.75;;;14.70;99.90;;;;;;5031444;28;20029;-91
2023/09/08 05:28:51;;;;;;;30.15;22.30;;;14.70;99.90;;;;;;5042433;28;20306;-92
2023/09/08 05:31:17;;;;;;;33.53;23.13;;;14.60;99.90;;;;;;5027052;28;20038;-91
2023/09/08 05:33:42;;;;;;;31.50;22.75;;;14.60;99.90;;;;;;5026487;28;20049;-90
2023/09/08 05:36:08;;;;;;;31.40;23.02;;;14.60;99.90;;;;;;5027991;28;20029;-91
2023/09/08 05:38:36;;;;;;;33.88;21.80;;;14.50;99.90;;;;;;5027496;28;20097;-92
2023/09/08 05:41:02;;;;;;;35.35;23.80;;;14.40;99.90;;;;;;5024163;28;20030;-92
2023/09/08 05:43:28;;;;;;;30.30;22.85;;;14.40;99.90;;;;;;5024888;28;20034;-91
2023/09/08 05:45:54;;;;;;;27.55;21.80;;;14.30;99.90;;;;;;5027594;28;20138;-94
2023/09/08 05:48:19;;;;;;;28.90;22.38;;;14.30;99.90;;;;;;5024810;28;20551;-94
2023/09/08 05:50:45;;;;;;;33.53;23.73;;;14.30;99.90;;;;;;5022064;28;20022;-95
2023/09/08 05:53:11;;;;;;;28.25;22.92;;;14.20;99.90;;;;;;5021976;28;20041;-93
2023/09/08 05:55:36;;;;;;;32.67;24.25;;;14.20;99.90;;;;;;5023494;28;20026;-94
2023/09/08 05:58:02;;;;;;;31.73;24.48;;;14.20;99.90;;;;;;5025337;28;20099;-93
2023/09/08 06:00:28;;;;;;;31.92;23.92;;;14.20;99.90;;;;;;5023588;28;20022;-93
2023/09/08 06:02:53;;;;;;;31.85;23.13;;;14.10;99.90;;;;;;5027836;28;20021;-94
2023/09/08 06:05:19;;;;;;;28.08;22.48;;;14.10;99.90;;;;;;5029095;28;20041;-91
2023/09/08 06:07:45;;;;;;;31.85;24.50;;;14.10;99.90;;;;;;5024112;28;20028;-92
2023/09/08 06:10:10;;;;;;;28.92;23.55;;;14.20;99.90;;;;;;5022539;28;20026;-92
2023/09/08 06:12:36;;;;;;;33.08;24.52;;;14.10;99.90;;;;;;5026492;28;20034;-91
2023/09/08 06:15:03;;;;;;;32.65;24.05;;;14.20;99.90;;;;;;5028432;28;20500;-92
2023/09/08 06:17:28;;;;;;;36.45;24.00;;;14.10;99.90;;;;;;5031082;28;20112;-94
2023/09/08 06:19:54;;;;;;;39.03;25.60;;;14.20;99.90;;;;;;5026948;28;20115;-92
2023/09/08 06:22:20;;;;;;;31.67;23.98;;;14.20;99.90;;;;;;5022010;28;20057;-91
2023/09/08 06:24:49;;;;;;;33.60;23.90;;;14.20;99.90;;;;;;5030321;28;20018;-92
2023/09/08 06:27:15;;;;;;;35.17;24.88;;;14.20;99.90;;;;;;5038662;28;20036;-91
2023/09/08 06:29:43;;;;;;;34.55;24.15;;;14.20;99.90;;;;;;5043121;28;20026;-92
2023/09/08 06:32:11;;;;;;;32.10;24.13;;;14.20;99.90;;;;;;5044193;28;20022;-94
2023/09/08 06:34:37;;;;;;;35.55;24.13;;;14.20;99.90;;;;;;5036737;28;20547;-92
2023/09/08 06:37:03;;;;;;;33.15;23.25;;;14.30;99.90;;;;;;5023844;28;20108;-91
2023/09/08 06:39:29;;;;;;;32.20;23.48;;;14.30;99.90;;;;;;5025978;28;20060;-91
2023/09/08 06:41:54;;;;;;;31.08;22.40;;;14.40;99.90;;;;;;5025095;28;20018;-91
2023/09/08 06:44:21;;;;;;;32.72;23.38;;;14.40;99.90;;;;;;5035178;28;20029;-87
2023/09/08 06:46:47;;;;;;;34.53;23.88;;;14.50;99.90;;;;;;5034973;28;20033;-90
2023/09/08 06:49:16;;;;;;;27.52;21.30;;;14.60;99.90;;;;;;5023385;28;20044;-92
2023/09/08 06:51:42;;;;;;;28.35;21.35;;;14.70;99.90;;;;;;5018412;28;20026;-92
2023/09/08 06:54:07;;;;;;;27.63;21.55;;;14.70;99.90;;;;;;5020821;28;20443;-90
2023/09/08 06:56:33;;;;;;;33.20;24.15;;;14.70;99.90;;;;;;5017824;28;20072;-93
2023/09/08 06:59:00;;;;;;;25.33;17.83;;;14.80;99.90;;;;;;5017010;28;20053;-89
2023/09/08 07:01:26;;;;;;;29.55;20.05;;;14.80;99.90;;;;;;5019034;28;20021;-91
2023/09/08 07:03:51;;;;;;;29.65;21.90;;;14.90;99.90;;;;;;5035445;28;20199;-91
2023/09/08 07:06:17;;;;;;;22.30;17.35;;;15.00;99.90;;;;;;5019250;28;20057;-91
2023/09/08 07:08:43;;;;;;;25.27;18.45;;;15.10;99.90;;;;;;5039690;28;20056;-89
2023/09/08 07:11:09;;;;;;;25.00;18.30;;;15.20;99.90;;;;;;5039092;28;20013;-92
2023/09/08 07:13:35;;;;;;;24.85;18.45;;;15.30;99.90;;;;;;5025547;28;20063;-90
2023/09/08 07:16:00;;;;;;;27.55;18.95;;;15.50;99.90;;;;;;5052822;28;20040;-87
2023/09/08 07:18:26;;;;;;;21.40;14.93;;;15.60;99.90;;;;;;5024763;28;20044;-91
2023/09/08 07:20:52;;;;;;;22.33;14.43;;;15.70;99.90;;;;;;5020192;28;20030;-94
2023/09/08 07:23:18;;;;;;;20.60;15.43;;;15.90;99.90;;;;;;5014728;28;20030;-94
2023/09/08 07:25:47;;;;;;;26.08;18.70;;;15.90;99.90;;;;;;5016719;28;20157;-91
2023/09/08 07:28:14;;;;;;;24.38;15.98;;;16.10;99.90;;;;;;5014446;28;20057;-91
2023/09/08 07:30:39;;;;;;;25.58;16.00;;;16.20;99.90;;;;;;5017983;28;20030;-91
2023/09/08 07:33:05;;;;;;;29.90;18.52;;;16.20;99.90;;;;;;5019756;28;20044;-92
2023/09/08 07:35:31;;;;;;;20.60;16.63;;;16.30;99.90;;;;;;5017661;28;20152;-93
2023/09/08 07:37:57;;;;;;;29.17;18.17;;;16.40;99.90;;;;;;5016338;28;20025;-93
2023/09/08 07:40:23;;;;;;;25.73;17.50;;;16.50;99.90;;;;;;5017090;28;20029;-92
2023/09/08 07:42:49;;;;;;;25.75;18.02;;;16.60;99.90;;;;;;5021236;28;20022;-92
2023/09/08 07:45:14;;;;;;;26.27;17.58;;;16.70;99.90;;;;;;5010584;28;20026;-93
2023/09/08 07:47:40;;;;;;;23.73;16.00;;;16.80;99.90;;;;;;5015618;28;20142;-91
2023/09/08 07:50:34;;;;;;;25.98;15.90;;;16.80;99.90;;;;;;5016921;28;20060;-91
2023/09/08 07:52:59;;;;;;;23.52;16.50;;;17.00;99.90;;;;;;5013677;28;20052;-93
2023/09/08 07:55:28;;;;;;;22.75;16.73;;;17.10;99.90;;;;;;5019680;28;20082;-91
2023/09/08 07:57:57;;;;;;;19.42;14.43;;;17.20;99.90;;;;;;5015073;28;20037;-93
2023/09/08 08:00:26;;;;;;;24.63;16.20;;;17.30;99.90;;;;;;5013659;28;20034;-91
2023/09/08 08:02:59;;;;;;;25.00;16.00;;;17.40;99.90;;;;;;5026274;28;20033;-94
2023/09/08 08:05:27;;;;;;;20.35;14.25;;;17.50;99.90;;;;;;5035198;28;20041;-88
2023/09/08 08:07:53;;;;;;;29.90;15.95;;;17.60;99.90;;;;;;5029506;28;20037;-91
2023/09/08 08:10:19;;;;;;;21.85;15.02;;;17.70;99.90;;;;;;5034266;28;20022;-89
2023/09/08 08:12:45;;;;;;;23.10;15.20;;;17.80;99.90;;;;;;5035548;28;20090;-91
2023/09/08 08:15:11;;;;;;;27.67;16.15;;;18.00;99.90;;;;;;5039737;28;20029;-90
2023/09/08 08:17:40;;;;;;;18.63;13.20;;;18.10;99.90;;;;;;5027487;28;20034;-94
2023/09/08 08:20:16;;;;;;;20.98;13.70;;;18.20;99.90;;;;;;5023414;28;20026;-94
2023/09/08 08:22:46;;;;;;;20.73;14.50;;;18.30;99.90;;;;;;5030821;28;20030;-94
2023/09/08 08:25:14;;;;;;;22.92;14.10;;;18.50;99.90;;;;;;5029325;28;20026;-93
2023/09/08 08:27:47;;;;;;;18.33;13.20;;;18.60;99.90;;;;;;5028020;28;20022;-94
2023/09/08 08:30:14;;;;;;;23.95;14.30;;;18.60;99.90;;;;;;5026877;28;20038;-93
2023/09/08 08:32:43;;;;;;;18.98;14.07;;;18.60;99.90;;;;;;5025805;28;20030;-93
2023/09/08 08:35:11;;;;;;;25.20;14.30;;;18.70;99.90;;;;;;5020286;28;20133;-95
2023/09/08 08:37:42;;;;;;;25.17;14.68;;;18.80;99.90;;;;;;5019829;28;20103;-92
2023/09/08 08:40:11;;;;;;;22.67;13.50;;;18.80;99.90;;;;;;5019892;28;20026;-92
2023/09/08 08:42:37;;;;;;;24.08;13.38;;;18.90;99.90;;;;;;5032293;28;20030;-95
2023/09/08 08:45:05;;;;;;;25.98;12.82;;;19.00;99.90;;;;;;5033808;28;20146;-93
2023/09/08 08:47:32;;;;;;;22.08;12.93;;;19.10;99.90;;;;;;5023285;28;20030;-90
2023/09/08 08:49:59;;;;;;;17.83;12.20;;;19.20;99.90;;;;;;5050200;28;20021;-94
2023/09/08 08:52:32;;;;;;;24.30;13.65;;;19.30;99.90;;;;;;5041591;28;20057;-88
2023/09/08 08:55:00;;;;;;;18.75;12.85;;;19.40;99.90;;;;;;5048684;28;20076;-91
2023/09/08 08:57:32;;;;;;;17.77;12.75;;;19.50;99.90;;;;;;5045071;28;20047;-93
2023/09/08 08:59:58;;;;;;;19.60;12.80;;;19.60;99.90;;;;;;5044530;28;20021;-95
2023/09/08 09:02:27;;;;;;;24.75;14.40;;;19.70;99.90;;;;;;5043458;28;20045;-95
2023/09/08 09:04:55;;;;;;;21.20;13.75;;;19.80;99.90;;;;;;5050421;28;20097;-90
2023/09/08 09:07:30;;;;;;;20.08;14.10;;;19.90;99.90;;;;;;5043962;28;20026;-92
2023/09/08 09:09:56;;;;;;;21.40;12.98;;;20.00;99.90;;;;;;5045245;28;20034;-95
2023/09/08 09:12:23;;;;;;;18.10;12.50;;;20.20;99.90;;;;;;5048427;28;20045;-94
2023/09/08 09:14:55;;;;;;;19.42;12.63;;;20.30;99.90;;;;;;5043770;28;20021;-94
2023/09/08 09:17:26;;;;;;;15.10;10.85;;;20.50;99.90;;;;;;5053229;28;20033;-94
2023/09/08 09:20:21;;;;;;;15.13;11.55;;;20.70;99.90;;;;;;5044910;28;20050;-94
2023/09/08 09:22:47;;;;;;;17.65;12.18;;;20.90;99.90;;;;;;5039211;28;20017;-95
2023/09/08 09:25:33;;;;;;;17.73;11.50;;;21.10;99.90;;;;;;5040757;28;20085;-95
2023/09/08 09:28:06;;;;;;;17.83;10.00;;;21.20;99.90;;;;;;5051468;28;20106;-94
2023/09/08 09:30:47;;;;;;;15.13;10.05;;;21.40;99.90;;;;;;5030440;28;20029;-93
2023/09/08 09:33:17;;;;;;;14.05;10.60;;;21.70;99.90;;;;;;5031102;28;20067;-94
2023/09/08 09:35:48;;;;;;;14.73;10.65;;;21.90;99.90;;;;;;5057150;28;20053;-96
2023/09/08 09:38:16;;;;;;;13.70;9.73;;;22.10;99.90;;;;;;5028649;28;20013;-93
2023/09/08 09:40:44;;;;;;;11.43;9.13;;;22.20;99.90;;;;;;5049075;28;20052;-95
2023/09/08 09:43:11;;;;;;;15.32;9.63;;;22.30;99.90;;;;;;5052359;28;20025;-95
2023/09/08 09:46:14;;;;;;;13.20;9.90;;;22.30;99.90;;;;;;5051619;28;20029;-94
2023/09/08 09:48:41;;;;;;;13.50;9.35;;;22.40;99.90;;;;;;5036281;28;20036;-95
2023/09/08 09:51:19;;;;;;;11.65;9.18;;;22.50;99.90;;;;;;5023779;28;20489;-94
2023/09/08 09:53:45;;;;;;;24.27;9.63;;;22.70;99.90;;;;;;5052192;28;20037;-95
2023/09/08 09:56:13;;;;;;;14.70;9.02;;;22.80;99.90;;;;;;5044088;28;20085;-92
2023/09/08 09:58:39;;;;;;;13.65;8.75;;;23.00;99.90;;;;;;5033905;28;20030;-94
2023/09/08 10:01:06;;;;;;;11.32;8.73;;;23.20;99.90;;;;;;5025221;28;20053;-92
2023/09/08 10:03:33;;;;;;;11.23;7.93;;;23.40;99.90;;;;;;5028119;28;20029;-93
2023/09/08 10:05:59;;;;;;;12.30;8.02;;;23.40;99.90;;;;;;5027771;28;20022;-93
2023/09/08 10:08:25;;;;;;;10.80;7.97;;;23.50;99.90;;;;;;5023248;28;20036;-93
2023/09/08 10:10:51;;;;;;;12.10;7.15;;;23.70;99.90;;;;;;5024715;28;20022;-93
2023/09/08 10:13:26;;;;;;;11.75;7.53;;;23.80;99.90;;;;;;5030429;28;20036;-93
2023/09/08 10:15:56;;;;;;;16.90;8.07;;;23.90;99.90;;;;;;5036161;28;20030;-94
2023/09/08 10:18:23;;;;;;;10.95;7.95;;;24.10;99.90;;;;;;5046587;28;20029;-92
2023/09/08 10:20:53;;;;;;;10.90;7.70;;;24.30;99.90;;;;;;5034346;28;20029;-93
2023/09/08 10:23:42;;;;;;;14.37;7.17;;;24.40;99.90;;;;;;5033435;28;20079;-94
2023/09/08 10:26:13;;;;;;;14.27;7.35;;;24.50;99.90;;;;;;5051302;28;20273;-94
2023/09/08 10:28:38;;;;;;;;;;;24.70;99.90;;;;;;5026917;28;20463;-93
2023/09/08 10:31:05;;;;;;;8.80;6.45;;;24.90;99.90;;;;;;5038284;28;19920;-93
2023/09/08 10:33:32;;;;;;;9.68;6.97;;;25.20;99.90;;;;;;5034798;28;20033;-94
2023/09/08 10:36:03;;;;;;;10.10;6.82;;;25.40;99.90;;;;;;5035478;28;20038;-94
2023/09/08 10:38:33;;;;;;;12.50;7.68;;;25.60;99.40;;;;;;5025913;28;20054;-91
2023/09/08 10:41:22;;;;;;;11.05;7.75;;;25.70;98.20;;;;;;5030616;28;20030;-90
2023/09/08 10:44:17;;;;;;;15.13;7.25;;;25.70;97.30;;;;;;5016585;28;20454;-92
2023/09/08 10:46:44;;;;;;;11.10;7.03;;;25.70;96.90;;;;;;5014402;28;20041;-94
2023/09/08 10:49:11;;;;;;;13.30;7.32;;;25.80;96.80;;;;;;5018736;28;20548;-94
2023/09/08 10:51:39;;;;;;;12.55;7.53;;;25.80;96.50;;;;;;5048928;28;20022;-92
2023/09/08 10:54:05;;;;;;;12.43;7.32;;;25.80;96.10;;;;;;5038945;28;20041;-94
2023/09/08 10:56:55;;;;;;;11.50;7.13;;;25.80;95.80;;;;;;5014900;28;20026;-93
2023/09/08 10:59:27;;;;;;;9.80;6.55;;;25.80;95.40;;;;;;5009199;28;20026;-92
2023/09/08 11:01:54;;;;;;;14.00;6.68;;;25.80;95.40;;;;;;5038633;28;20038;-94
2023/09/08 11:04:21;;;;;;;11.75;6.72;;;25.90;95.50;;;;;;5032415;28;20029;-93
2023/09/08 11:06:47;;;;;;;9.65;6.35;;;26.00;95.50;;;;;;5038293;28;20033;-92
2023/09/08 11:09:12;;;;;;;9.55;6.50;;;26.10;95.30;;;;;;5036621;28;20041;-93
2023/09/08 11:11:38;;;;;;;10.43;7.00;;;26.10;95.10;;;;;;5041639;28;20028;-94
2023/09/08 11:14:04;;;;;;;14.90;7.20;;;26.30;95.10;;;;;;5039434;28;20068;-93
2023/09/08 11:16:33;;;;;;;12.90;6.90;;;26.30;94.90;;;;;;5025082;28;20022;-93
2023/09/08 11:18:58;;;;;;;18.63;7.30;;;26.40;95.00;;;;;;5025120;28;20369;-92
2023/09/08 11:21:24;;;;;;;9.43;6.57;;;26.50;94.90;;;;;;5033898;28;20060;-93
2023/09/08 11:23:51;;;;;;;10.48;7.15;;;26.60;94.70;;;;;;5033408;28;20108;-92
2023/09/08 11:26:17;;;;;;;12.50;6.72;;;26.60;94.40;;;;;;5035816;28;20026;-92
2023/09/08 11:28:43;;;;;;;12.98;6.43;;;26.60;94.40;;;;;;5027462;28;20099;-93
2023/09/08 11:31:11;;;;;;;9.20;6.10;;;26.70;94.40;;;;;;5026049;28;20021;-94
2023/09/08 11:33:39;;;;;;;11.10;6.45;;;26.70;94.20;;;;;;5028100;28;20042;-93
2023/09/08 11:36:15;;;;;;;11.15;6.63;;;26.70;94.10;;;;;;5031084;28;20046;-93
2023/09/08 11:38:46;;;;;;;12.10;6.53;;;26.70;94.20;;;;;;5024958;28;20030;-94
2023/09/08 11:41:12;;;;;;;11.27;6.50;;;26.70;94.30;;;;;;5004107;28;20485;-95
2023/09/08 11:43:43;;;;;;;12.85;6.70;;;26.80;94.20;;;;;;5019447;28;20077;-93
2023/09/08 11:46:10;;;;;;;10.20;6.72;;;26.90;94.00;;;;;;5017676;28;20029;-92
2023/09/08 11:48:36;;;;;;;14.30;6.68;;;27.00;93.80;;;;;;5022236;28;20041;-95
2023/09/08 11:51:06;;;;;;;10.75;6.25;;;27.20;93.50;;;;;;5025462;28;20017;-92
2023/09/08 11:53:33;;;;;;;12.82;7.72;;;27.40;93.20;;;;;;5029717;28;20048;-93
2023/09/08 11:55:59;;;;;;;12.63;7.60;;;27.50;92.80;;;;;;5026777;28;20073;-92
2023/09/08 11:58:24;;;;;;;14.52;8.38;;;27.60;92.40;;;;;;5023149;28;20056;-93
2023/09/08 12:00:53;;;;;;;71.90;15.05;;;27.80;91.90;;;;;;5022889;28;20044;-94
2023/09/08 12:03:19;;;;;;;617.08;62.28;;;27.90;91.10;;;;;;5006886;28;20036;-93
2023/09/08 12:05:51;;;;;;;16.67;9.43;;;28.00;90.60;;;;;;5024111;28;20026;-92
2023/09/08 12:08:17;;;;;;;13.93;7.72;;;28.10;90.20;;;;;;5022440;28;20033;-94
2023/09/08 12:10:43;;;;;;;7.75;5.68;;;28.10;89.70;;;;;;5023642;28;20062;-92
2023/09/08 12:13:09;;;;;;;13.50;6.28;;;28.20;89.20;;;;;;5026846;28;20291;-92
2023/09/08 12:15:37;;;;;;;10.30;5.85;;;28.20;88.90;;;;;;5030912;28;20026;-94
2023/09/08 12:18:15;;;;;;;11.55;6.25;;;28.40;88.80;;;;;;5036119;28;20033;-90
2023/09/08 12:20:41;;;;;;;7.22;5.93;;;28.50;87.80;;;;;;5035344;28;20012;-87
2023/09/08 12:23:27;;;;;;;10.43;6.13;;;28.90;87.80;;;;;;5036018;28;20025;-90
2023/09/08 12:25:56;;;;;;;10.63;6.88;;;29.30;86.50;;;;;;5033409;28;20805;-95
2023/09/08 12:28:22;;;;;;;9.77;5.68;;;29.60;85.30;;;;;;5022893;28;20026;-94
2023/09/08 12:30:52;;;;;;;10.25;5.93;;;29.70;84.20;;;;;;5015746;28;20029;-95
2023/09/08 12:33:19;;;;;;;11.05;6.88;;;29.90;83.30;;;;;;5016368;28;20037;-95